Norden-Norddeich Airport

EDWS · 下萨克森, 德国

2022年10月3日

时间 代码 天气 温度 能见度 天花板 METAR/SPECI
11:25
V
17 °C 10 km+ - 280° 280° 11 kt METAR EHHW 030925Z AUTO 28011KT 9999 NSC 17/10 Q1025
10:55
V
16 °C 10 km+ - 280° 280° 10 kt METAR EHHW 030855Z AUTO 28010KT 9999 NSC 16/10 Q1025
10:25
V
17 °C 10 km+ - 270° 270° 11 kt METAR EHHW 030825Z AUTO 27011KT 9999 NSC 17/10 Q1025
09:55
V
17 °C 10 km+ - 280° 280° 11 kt METAR EHHW 030755Z AUTO 28011KT 9999 NSC 17/10 Q1025
09:25
V
16 °C 10 km+ - 280° 280° 10 kt METAR EHHW 030725Z AUTO 28010KT 9999 FEW020/// 16/10 Q1025
08:55
V
15 °C 10 km+ - 290° 290° 12 kt METAR EHHW 030655Z AUTO 29012KT 250V320 9999 FEW020/// 15/10 Q1025
08:25
V
15 °C 10 km+ - 280° 280° 11 kt METAR EHHW 030625Z AUTO 28011KT 9999 NCD 15/10 Q1024
07:55
V
15 °C 10 km+ - 290° 290° 11 kt METAR EHHW 030555Z AUTO 29011KT 9999 FEW018/// 15/10 Q1024
07:25
V
15 °C 10 km+ - 300° 300° 10 kt METAR EHHW 030525Z AUTO 30010KT 280V340 9999 FEW018/// SCT027/// 15/10 Q1024
06:55
V
15 °C 10 km+ - 310° 310° 10 kt METAR EHHW 030455Z AUTO 31010KT 9999 FEW019/// SCT023/// 15/10 Q1024
06:25
V
15 °C 10 km+ - 300° 300° 11 kt METAR EHHW 030425Z AUTO 30011KT 9999 FEW019/// 15/10 Q1024
05:55
V
15 °C 10 km+ - 310° 310° 10 kt METAR EHHW 030355Z AUTO 31010KT 290V350 9999 FEW021/// 15/10 Q1024
05:25
V
15 °C 10 km+ - 320° 320° 10 kt METAR EHHW 030325Z AUTO 32010KT 280V350 9999 FEW021/// SCT025/// 15/10 Q1024
04:55
V
15 °C 10 km+ - 320° 320° 11 kt METAR EHHW 030255Z AUTO 32011KT 280V350 9999 FEW021/// SCT025/// 15/10 Q1024
04:25
V
15 °C 10 km+ - 320° 320° 11 kt METAR EHHW 030225Z AUTO 32011KT 280V340 9999 FEW021/// SCT024/// 15/09 Q1023
03:55
V
15 °C 10 km+ - 320° 320° 12 kt METAR EHHW 030155Z AUTO 32012KT 270V340 9999 FEW021/// SCT031/// 15/09 Q1023
03:25
V
15 °C 10 km+ 3.200 ft 320° 320° 13 kt METAR EHHW 030125Z AUTO 32013KT 270V340 9999 FEW022/// SCT025/// BKN032/// 15/09 Q1023
02:55
V
15 °C 10 km+ 3.500 ft 320° 320° 12 kt METAR EHHW 030055Z AUTO 32012KT 280V340 9999 FEW022/// SCT026/// BKN035/// 15/09 Q1023
02:25
V
15 °C 10 km+ - 320° 320° 14 kt METAR EHHW 030025Z AUTO 32014KT 290V350 9999 FEW022/// SCT032/// 15/08 Q1023
01:55
V
15 °C 10 km+ 3.600 ft 320° 320° 16 kt METAR EHHW 022355Z AUTO 32016KT 290V350 9999 FEW021/// SCT030/// BKN036/// 15/09 Q1022
01:25
V
15 °C 10 km+ - 320° 320° 15 kt METAR EHHW 022325Z AUTO 32015KT 290V360 9999 FEW019/// SCT032/// 15/09 Q1022
00:55
V
15 °C 10 km+ - 320° 320° 14 kt METAR EHHW 022255Z AUTO 32014KT 280V350 9999 FEW019/// SCT023/// 15/10 Q1022
00:25
V
15 °C 10 km+ 3.700 ft 310° 310° 15 kt METAR EHHW 022225Z AUTO 31015KT 280V360 9999 FEW022/// SCT029/// BKN037/// 15/09 Q1022

2022年10月2日

时间 代码 天气 温度 能见度 天花板 METAR/SPECI
23:55
V
15 °C 10 km+ 3.700 ft 310° 310° 15 kt METAR EHHW 022155Z AUTO 31015KT 280V340 9999 FEW022/// SCT032/// BKN037/// 15/09 Q1022
23:25
V
15 °C 10 km+ 4.100 ft 320° 320° 13 kt METAR EHHW 022125Z AUTO 32013KT 280V350 9999 FEW023/// SCT029/// BKN041/// 15/09 Q1021
22:55
V
15 °C 10 km+ - 320° 320° 13 kt METAR EHHW 022055Z AUTO 32013KT 280V350 9999 FEW022/// SCT029/// 15/09 Q1021
22:25
V
15 °C 10 km+ - 320° 320° 14 kt METAR EHHW 022025Z AUTO 32014KT 280V340 9999 FEW022/// SCT035/// 15/09 Q1021
21:55
V
15 °C 10 km+ - 320° 320° 14 kt METAR EHHW 021955Z AUTO 32014KT 280V350 9999 FEW023/// SCT039/// 15/09 Q1020
21:25
V
15 °C 10 km+ - 320° 320° 18 kt METAR EHHW 021925Z AUTO 32018KT 290V350 9999 FEW020/// SCT029/// 15/09 Q1020
20:55
V
15 °C 10 km+ - 320° 320° 16 kt METAR EHHW 021855Z AUTO 32016KT 290V350 9999 FEW018/// SCT027/// 15/09 Q1020
20:25
V
15 °C 10 km+ 4.700 ft 320° 320° 17 kt METAR EHHW 021825Z AUTO 32017KT 9999 FEW019/// SCT025/// BKN047/// 15/10 Q1019
19:55
V
15 °C 10 km+ 4.000 ft 310° 310° 17 kt METAR EHHW 021755Z AUTO 31017KT 9999 SCT021/// SCT029/// BKN040/// 15/10 Q1019
19:25
V
15 °C 10 km+ - 310° 310° 19 kt METAR EHHW 021725Z AUTO 31019KT 280V350 9999 FEW020/// SCT029/// 15/10 Q1019
18:55
V
15 °C 10 km+ - 300° 300° 15 kt METAR EHHW 021655Z AUTO 30015KT 260V340 9999 FEW021/// SCT038/// 15/10 Q1018
18:25
V
15 °C 10 km+ - 310° 310° 18 kt METAR EHHW 021625Z AUTO 31018KT 280V340 9999 FEW020/// SCT030/// 15/09 Q1018
17:55
V
15 °C 10 km+ - 310° 310° 18 kt METAR EHHW 021555Z AUTO 31018KT 280V350 9999 FEW020/// SCT035/// 15/10 Q1018
17:25
V
15 °C 10 km+ - 300° 300° 19 kt METAR EHHW 021525Z AUTO 30019KT 280V340 9999 FEW020/// SCT023/// 15/10 Q1017
16:55
V
15 °C 10 km+ - 300° 300° 18 kt METAR EHHW 021455Z AUTO 30018KT 280V340 9999 FEW021/// SCT029/// 15/10 Q1017
16:25
V
15 °C 10 km+ - 310° 310° 19 kt METAR EHHW 021425Z AUTO 31019KT 9999 FEW021/// SCT029/// 15/09 Q1017
15:55
V
15 °C 10 km+ - 300° 300° 20 kt METAR EHHW 021355Z AUTO 30020KT 9999 FEW021/// SCT026/// 15/09 Q1016
15:25
V
15 °C 10 km+ - 300° 300° 19 kt METAR EHHW 021325Z AUTO 30019KT 9999 FEW021/// SCT033/// 15/09 Q1016
14:55
V
15 °C 10 km+ - 300° 300° 20 kt METAR EHHW 021255Z AUTO 30020KT 9999 FEW021/// SCT037/// 15/09 Q1016
14:25
V
15 °C 10 km+ - 300° 300° 20 kt METAR EHHW 021225Z AUTO 30020KT 9999 FEW022/// 15/08 Q1015
13:55
V
15 °C 10 km+ - 300° 300° 20 kt METAR EHHW 021155Z AUTO 30020KT 9999 FEW022/// 15/09 Q1015
13:25
V
15 °C 10 km+ - 300° 300° 22 kt METAR EHHW 021125Z AUTO 30022KT 9999 FEW021/// SCT030/// 15/09 Q1015
12:55
V
15 °C 10 km+ 3.600 ft 300° 300° 19 kt METAR EHHW 021055Z AUTO 30019KT 9999 FEW021/// SCT024/// BKN036/// 15/09 Q1014
12:25
M
15 °C 10 km+ 2.700 ft 300° 300° 19 kt METAR EHHW 021025Z AUTO 30019KT 9999 SCT023/// BKN027/// BKN037/// 15/09 Q1014
11:55
M
15 °C 10 km+ 2.900 ft 300° 300° 20 kt METAR EHHW 020955Z AUTO 30020KT 9999 SCT021/// SCT025/// BKN029/// 15/09 Q1014
11:25
V
16 °C 10 km+ 3.800 ft 290° 290° 19 kt METAR EHHW 020925Z AUTO 29019KT 9999 SCT021/// SCT026/// BKN038/// 16/10 Q1013
10:55
V
15 °C 10 km+ - 290° 290° 19 kt METAR EHHW 020855Z AUTO 29019KT 260V330 9999 FEW020/// SCT037/// 15/09 Q1013 RERA
10:25
V
16 °C 10 km+ - 290° 290° 20 kt METAR EHHW 020825Z AUTO 29020KT 9999 FEW025/// 16/09 Q1013
09:55
V
15 °C 10 km+ - 300° 300° 21 kt METAR EHHW 020755Z AUTO 30021KT 9999 FEW024/// 15/08 Q1012
09:25
V
15 °C 10 km+ - 300° 300° 23 kt METAR EHHW 020725Z AUTO 30023KT 9999 FEW024/// 15/08 Q1011
08:55
V
15 °C 10 km+ - 300° 300° 23 kt METAR EHHW 020655Z AUTO 30023KT 9999 FEW025/// 15/10 Q1011
08:25
V
15 °C 10 km+ - 300° 300° 24 kt METAR EHHW 020625Z AUTO 30024KT 9999 FEW023/// SCT029/// 15/09 Q1011
07:55
V
15 °C 10 km+ - 300° 300° 23 kt METAR EHHW 020555Z AUTO 30023KT 9999 FEW023/// SCT026/// 15/09 Q1010
07:25
V
15 °C 10 km+ - 290° 290° 24 kt METAR EHHW 020525Z AUTO 29024KT 9999 FEW011/// SCT046/// 15/09 Q1010
06:55
V
15 °C 10 km+ 4.300 ft 290° 290° 21 kt METAR EHHW 020455Z AUTO 29021KT 9999 FEW011/// SCT025/// BKN043/// 15/10 Q1010 RERA
06:25
V
16 °C 10 km+ - 290° 290° 23 kt METAR EHHW 020425Z AUTO 29023KT 9999 FEW024/// SCT027/// 16/09 Q1010
05:55
V
16 °C 10 km+ - 290° 290° 22 kt METAR EHHW 020355Z AUTO 29022KT 9999 FEW020/// SCT029/// 16/10 Q1010
05:25
V
16 °C 10 km+ - 290° 290° 23 kt METAR EHHW 020325Z AUTO 29023KT 9999 SCT020/// SCT026/// 16/10 Q1009
04:55
V
16 °C 10 km+ - 290° 290° 22 kt METAR EHHW 020255Z AUTO 29022KT 9999 FEW020/// 16/10 Q1009
04:25
V
16 °C 10 km+ - 280° 280° 21 kt METAR EHHW 020225Z AUTO 28021KT 9999 FEW019/// SCT023/// 16/11 Q1009
03:55
V
16 °C 10 km+ - 280° 280° 24 kt METAR EHHW 020155Z AUTO 28024KT 9999 FEW022/// SCT039/// 16/11 Q1009
03:25
M
16 °C 5 km - 280° 280° 22 kt METAR EHHW 020125Z AUTO 28022KT 5000 HZ FEW025/// SCT031/// 16/09 Q1009 RERA REDZ
02:55
V
16 °C 10 km+ - 280° 280° 23 kt METAR EHHW 020055Z AUTO 28023KT 9999 FEW025/// 16/10 Q1009
02:25
V
16 °C 10 km+ - 280° 280° 25 kt METAR EHHW 020025Z AUTO 28025KT 9999 FEW024/// 16/10 Q1009
01:55
V
16 °C 10 km+ - 280° 280° 25 kt METAR EHHW 012355Z AUTO 28025KT 9999 FEW022/// SCT031/// 16/10 Q1008
01:25
V
16 °C 10 km+ - 270° 270° 25 kt METAR EHHW 012325Z AUTO 27025KT 9999 FEW022/// SCT042/// 16/11 Q1008
00:55
V
16 °C 10 km+ - 280° 280° 27 kt METAR EHHW 012255Z AUTO 28027KT 9999 FEW023/// 16/11 Q1008
00:25
V
16 °C 10 km+ - 290° 290° 28 kt METAR EHHW 012225Z AUTO 29028KT 9999 FEW023/// SCT038/// 16/11 Q1008

2022年10月1日

时间 代码 天气 温度 能见度 天花板 METAR/SPECI
23:55
V
16 °C 10 km+ - 280° 280° 27 kt METAR EHHW 012155Z AUTO 28027KT 9999 FEW025/// SCT030/// 16/10 Q1008
23:25
V
16 °C 10 km+ - 270° 270° 25 kt METAR EHHW 012125Z AUTO 27025KT 9999 FEW024/// SCT028/// 16/10 Q1007
22:55
V
16 °C 10 km+ - 270° 270° 27 kt METAR EHHW 012055Z AUTO 27027KT 9999 FEW024/// SCT029/// 16/11 Q1007
22:25
V
16 °C 10 km+ - 270° 270° 27 kt METAR EHHW 012025Z AUTO 27027KT 9999 FEW025/// 16/10 Q1007
21:55
V
16 °C 10 km+ - 280° 280° 26 kt METAR EHHW 011955Z AUTO 28026KT 9999 FEW025/// 16/10 Q1007
21:25
V
16 °C 10 km+ - 270° 270° 25 kt METAR EHHW 011925Z AUTO 27025KT 9999 FEW024/// SCT028/// 16/10 Q1006
20:55
V
16 °C 10 km+ - 280° 280° 26 kt METAR EHHW 011855Z AUTO 28026KT 9999 FEW025/// SCT028/// 16/09 Q1006
20:25
V
16 °C 10 km+ - 270° 270° 22 kt METAR EHHW 011825Z AUTO 27022KT 9999 FEW025/// SCT031/// 16/10 Q1006
19:55
V
16 °C 10 km+ - 280° 280° 24 kt METAR EHHW 011755Z AUTO 28024KT 9999 FEW025/// SCT029/// 16/09 Q1005
19:25
V
16 °C 10 km+ - 280° 280° 22 kt METAR EHHW 011725Z AUTO 28022KT 9999 FEW025/// SCT029/// 16/09 Q1005
18:55
V
16 °C 10 km+ - 280° 280° 21 kt METAR EHHW 011655Z AUTO 28021KT 9999 FEW026/// 16/09 Q1005
18:25
V
16 °C 10 km+ - 280° 280° 21 kt METAR EHHW 011625Z AUTO 28021KT 9999 FEW024/// 16/09 Q1004
17:55
V
16 °C 10 km+ - 280° 280° 23 kt METAR EHHW 011555Z AUTO 28023KT 9999 FEW022/// 16/09 Q1004
17:25
V
16 °C 10 km+ - 280° 280° 21 kt METAR EHHW 011525Z AUTO 28021KT 9999 FEW022/// 16/10 Q1003
16:55
V
16 °C 10 km+ - 280° 280° 23 kt METAR EHHW 011455Z AUTO 28023KT 9999 FEW024/// 16/10 Q1003
16:25
V
16 °C 10 km+ - 290° 290° 25 kt METAR EHHW 011425Z AUTO 29025KT 9999 FEW023/// 16/09 Q1003
15:55
V
16 °C 10 km+ - 290° 290° 24 kt METAR EHHW 011355Z AUTO 29024KT 9999 FEW022/// 16/09 Q1002
15:25
V
16 °C 10 km+ - 290° 290° 20 kt METAR EHHW 011325Z AUTO 29020KT 9999 FEW024/// 16/10 Q1002
14:55
V
16 °C 10 km+ - 290° 290° 23 kt METAR EHHW 011255Z AUTO 29023KT 9999 FEW022/// SCT027/// 16/10 Q1001
14:25
V
16 °C 10 km+ - 290° 290° 21 kt METAR EHHW 011225Z AUTO 29021KT 9999 FEW020/// SCT024/// 16/10 Q1001
13:55
V
16 °C 10 km+ - 290° 290° 24 kt METAR EHHW 011155Z AUTO 29024KT 9999 FEW019/// SCT024/// 16/10 Q1001
13:25
V
16 °C 10 km+ - 290° 290° 22 kt METAR EHHW 011125Z AUTO 29022KT 9999 FEW021/// SCT025/// 16/10 Q1000
12:55
M
16 °C 10 km+ 2.700 ft 290° 290° 21 kt METAR EHHW 011055Z AUTO 29021KT 9999 FEW019/// SCT022/// BKN027/// 16/10 Q1000
12:25
V
15 °C 10 km+ 3.800 ft 280° 280° 14 kt METAR EHHW 011025Z AUTO 28014KT 9999 FEW019/// SCT027/// BKN038/// 15/10 Q0999
11:55
V
15 °C 10 km+ - 260° 260° 13 kt METAR EHHW 010955Z AUTO 26013KT 9999 FEW022/// SCT048/// 15/11 Q0999
较旧的数据

我们和第三方通过cookies跟踪您在我们网站上的上网行为。如果您继续,我们认为您同意我们的cookie政策。 了解更多